Time;durP1;ratioP1;P1;durP2;ratioP2;P2;SDS_P1;SDS_P2;PMS_P1;PMS_P2;Temp;Humidity;BMP_temperature;BMP_pressure;BME280_temperature;BME280_humidity;BME280_pressure;Samples;Min_cycle;Max_cycle;Signal;HPM_P1;HPM_P2
2022/01/21 00:01:21;;;;;;;5.22;1.95;;;;;;;;;;5021481;28;20234;-86
2022/01/21 00:03:49;;;;;;;4.97;2.33;;;;;;;;;;5021430;28;20195;-86
2022/01/21 00:06:18;;;;;;;9.77;3.10;;;;;;;;;;5020958;28;20199;-86
2022/01/21 00:08:47;;;;;;;12.25;5.07;;;;;;;;;;5020475;28;20230;-83
2022/01/21 00:11:16;;;;;;;5.53;2.65;;;;;;;;;;5020328;28;20202;-84
2022/01/21 00:13:45;;;;;;;5.68;2.60;;;;;;;;;;5020312;28;20592;-84
2022/01/21 00:16:15;;;;;;;5.97;2.30;;;;;;;;;;5020407;28;20212;-85
2022/01/21 00:18:51;;;;;;;5.88;2.88;;;;;;;;;;5020438;28;20226;-86
2022/01/21 00:32:21;;;;;;;5.72;2.40;;;;;;;;;;5019269;28;20274;-85
2022/01/21 00:34:49;;;;;;;7.97;3.20;;;;;;;;;;5019209;28;20245;-86
2022/01/21 00:37:17;;;;;;;11.60;4.05;;;;;;;;;;5019991;28;20202;-86
2022/01/21 00:39:51;;;;;;;4.85;2.00;;;;;;;;;;5019666;28;20294;-86
2022/01/21 00:42:43;;;;;;;18.15;4.03;;;;;;;;;;5019603;28;20211;-86
2022/01/21 00:45:14;;;;;;;8.45;3.90;;;;;;;;;;5019838;28;20214;-86
2022/01/21 00:47:42;;;;;;;4.40;2.83;;;;;;;;;;5020082;28;20286;-85
2022/01/21 00:50:10;;;;;;;4.38;2.58;;;;;;;;;;5018361;28;20285;-86
2022/01/21 00:52:38;;;;;;;7.35;2.63;;;;;;;;;;5020130;28;20222;-86
2022/01/21 00:55:07;;;;;;;5.10;2.55;;;;;;;;;;5019591;28;20233;-85
2022/01/21 00:57:35;;;;;;;7.60;2.67;;;;;;;;;;5019175;28;20207;-86
2022/01/21 01:00:04;;;;;;;5.90;2.40;;;;;;;;;;5019244;28;20227;-86
2022/01/21 01:02:31;;;;;;;5.82;3.45;;;;;;;;;;5019023;28;20683;-87
2022/01/21 01:04:59;;;;;;;7.70;3.03;;;;;;;;;;5019691;28;20188;-86
2022/01/21 01:07:26;;;;;;;7.28;2.75;;;;;;;;;;5019429;28;20274;-85
2022/01/21 01:09:57;;;;;;;6.30;2.80;;;;;;;;;;5018913;28;20225;-87
2022/01/21 01:12:39;;;;;;;5.15;2.30;;;;;;;;;;5018686;28;20219;-85
2022/01/21 01:20:38;;;;;;;5.05;2.35;;;;;;;;;;5020200;28;20279;-86
2022/01/21 01:23:10;;;;;;;4.88;2.55;;;;;;;;;;5019078;28;20203;-87
2022/01/21 01:28:23;;;;;;;7.18;3.28;;;;;;;;;;5020215;28;20218;-86
2022/01/21 01:30:51;;;;;;;6.30;2.50;;;;;;;;;;5020004;28;20210;-85
2022/01/21 01:33:23;;;;;;;7.15;2.67;;;;;;;;;;5019885;28;20687;-87
2022/01/21 01:35:51;;;;;;;5.25;2.30;;;;;;;;;;5019669;28;20222;-84
2022/01/21 01:38:43;;;;;;;8.38;2.53;;;;;;;;;;5018997;28;20309;-87
2022/01/21 01:41:15;;;;;;;3.13;2.10;;;;;;;;;;5019237;28;20238;-85
2022/01/21 01:51:47;;;;;;;4.07;2.17;;;;;;;;;;5019190;28;20245;-87
2022/01/21 01:54:16;;;;;;;5.03;2.58;;;;;;;;;;5019631;28;20259;-86
2022/01/21 01:56:49;;;;;;;5.47;2.33;;;;;;;;;;5019109;28;20203;-85
2022/01/21 01:59:16;;;;;;;4.45;1.98;;;;;;;;;;5019473;28;20227;-86
2022/01/21 02:01:43;;;;;;;5.03;3.03;;;;;;;;;;5018527;28;20203;-86
2022/01/21 02:04:11;;;;;;;9.30;3.13;;;;;;;;;;5018483;28;20214;-86
2022/01/21 02:06:38;;;;;;;6.85;2.42;;;;;;;;;;5018571;28;20211;-83
2022/01/21 02:09:05;;;;;;;5.05;2.45;;;;;;;;;;5018670;28;20222;-84
2022/01/21 02:11:33;;;;;;;5.32;2.08;;;;;;;;;;5018925;28;20298;-86
2022/01/21 02:14:07;;;;;;;14.90;2.67;;;;;;;;;;5018659;28;20199;-83
2022/01/21 02:16:54;;;;;;;9.77;2.72;;;;;;;;;;5017644;28;20214;-85
2022/01/21 02:22:08;;;;;;;4.35;2.30;;;;;;;;;;5017502;28;20186;-86
2022/01/21 02:24:47;;;;;;;5.70;2.03;;;;;;;;;;5018277;28;20738;-85
2022/01/21 02:27:15;;;;;;;7.57;2.72;;;;;;;;;;5017881;28;20187;-86
2022/01/21 02:29:47;;;;;;;2.85;1.77;;;;;;;;;;5017505;28;20246;-85
2022/01/21 02:32:15;;;;;;;2.92;2.40;;;;;;;;;;5017521;28;20187;-86
2022/01/21 02:34:44;;;;;;;4.97;2.40;;;;;;;;;;5018067;28;20207;-87
2022/01/21 02:37:14;;;;;;;4.95;2.25;;;;;;;;;;5018392;28;20195;-86
2022/01/21 02:39:42;;;;;;;7.70;4.28;;;;;;;;;;5017923;28;20219;-86
2022/01/21 02:42:10;;;;;;;4.97;2.50;;;;;;;;;;5017426;28;20560;-87
2022/01/21 02:44:38;;;;;;;5.63;2.80;;;;;;;;;;5017652;28;20547;-85
2022/01/21 02:47:06;;;;;;;4.30;2.40;;;;;;;;;;5017864;28;20238;-85
2022/01/21 02:49:35;;;;;;;5.60;2.58;;;;;;;;;;5018398;28;20614;-86
2022/01/21 02:52:04;;;;;;;3.55;2.50;;;;;;;;;;5018236;28;20282;-87
2022/01/21 02:54:34;;;;;;;6.20;2.70;;;;;;;;;;5017940;28;20668;-84
2022/01/21 02:57:03;;;;;;;9.25;3.42;;;;;;;;;;5017607;28;20230;-86
2022/01/21 02:59:30;;;;;;;7.60;2.35;;;;;;;;;;5018043;28;20226;-85
2022/01/21 03:01:59;;;;;;;6.18;2.72;;;;;;;;;;5017149;28;20195;-86
2022/01/21 03:04:33;;;;;;;6.80;3.15;;;;;;;;;;5017029;28;20330;-86
2022/01/21 03:07:01;;;;;;;7.38;2.55;;;;;;;;;;5017739;28;20241;-84
2022/01/21 03:09:28;;;;;;;5.63;2.40;;;;;;;;;;5017735;28;20222;-85
2022/01/21 03:11:57;;;;;;;11.40;3.47;;;;;;;;;;5017691;28;20209;-84
2022/01/21 03:14:25;;;;;;;3.53;1.88;;;;;;;;;;5017984;28;20642;-87
2022/01/21 03:16:53;;;;;;;7.63;2.30;;;;;;;;;;5017557;28;20235;-86
2022/01/21 03:19:20;;;;;;;5.28;2.72;;;;;;;;;;5018062;28;20302;-86
2022/01/21 03:21:48;;;;;;;8.48;2.13;;;;;;;;;;5017240;28;20229;-87
2022/01/21 03:24:15;;;;;;;3.70;2.10;;;;;;;;;;5017645;28;20233;-86
2022/01/21 03:26:43;;;;;;;6.68;2.97;;;;;;;;;;5017923;28;20225;-86
2022/01/21 03:29:11;;;;;;;5.57;2.17;;;;;;;;;;5017553;28;20226;-86
2022/01/21 03:31:39;;;;;;;4.18;2.30;;;;;;;;;;5017923;28;20271;-86
2022/01/21 03:34:06;;;;;;;7.70;2.83;;;;;;;;;;5018532;28;20297;-86
2022/01/21 03:36:35;;;;;;;5.68;2.10;;;;;;;;;;5017502;28;20297;-84
2022/01/21 03:39:02;;;;;;;5.68;2.30;;;;;;;;;;5016932;28;20223;-86
2022/01/21 03:41:29;;;;;;;7.53;3.13;;;;;;;;;;5016769;28;20571;-85
2022/01/21 03:43:57;;;;;;;9.30;2.65;;;;;;;;;;5017002;28;20634;-86
2022/01/21 03:46:26;;;;;;;6.72;2.47;;;;;;;;;;5016637;28;20203;-87
2022/01/21 03:48:53;;;;;;;6.82;2.20;;;;;;;;;;5041512;23;20454;-83
2022/01/21 03:51:22;;;;;;;4.13;1.65;;;;;;;;;;5015659;28;20229;-82
2022/01/21 03:53:49;;;;;;;8.05;2.25;;;;;;;;;;5014920;28;20206;-81
2022/01/21 03:56:17;;;;;;;8.32;2.65;;;;;;;;;;5014154;28;20230;-81
2022/01/21 03:58:45;;;;;;;3.42;2.15;;;;;;;;;;5015121;28;20195;-82
2022/01/21 04:01:13;;;;;;;4.95;2.13;;;;;;;;;;5015729;28;20203;-85
2022/01/21 04:03:41;;;;;;;8.27;2.40;;;;;;;;;;5016294;28;20207;-87
2022/01/21 04:06:09;;;;;;;6.45;2.72;;;;;;;;;;5015571;28;20203;-85
2022/01/21 04:08:36;;;;;;;4.47;2.17;;;;;;;;;;5016858;28;20707;-86
2022/01/21 04:11:04;;;;;;;3.50;1.80;;;;;;;;;;5015820;28;20595;-85
2022/01/21 04:13:34;;;;;;;4.65;3.28;;;;;;;;;;5016212;28;20577;-87
2022/01/21 04:16:02;;;;;;;7.95;2.85;;;;;;;;;;5016083;28;20219;-87
2022/01/21 04:18:32;;;;;;;1.65;1.55;;;;;;;;;;5014739;28;20191;-88
2022/01/21 04:21:01;;;;;;;3.97;1.80;;;;;;;;;;5016025;28;20309;-87
2022/01/21 04:23:28;;;;;;;7.22;2.83;;;;;;;;;;5016613;28;20258;-85
2022/01/21 04:25:56;;;;;;;3.60;2.70;;;;;;;;;;5018372;28;20206;-84
2022/01/21 04:28:24;;;;;;;4.07;2.80;;;;;;;;;;5019000;28;20206;-86
2022/01/21 04:30:51;;;;;;;3.53;2.28;;;;;;;;;;5019787;28;20265;-86
2022/01/21 04:33:18;;;;;;;4.70;2.28;;;;;;;;;;5019827;28;20206;-86
2022/01/21 04:35:46;;;;;;;4.80;2.45;;;;;;;;;;5018547;28;20214;-85
2022/01/21 04:38:18;;;;;;;8.38;2.33;;;;;;;;;;5019365;28;20207;-86
2022/01/21 04:40:51;;;;;;;3.47;2.13;;;;;;;;;;5019751;28;20700;-84
2022/01/21 04:48:48;;;;;;;5.18;3.03;;;;;;;;;;5019794;28;20191;-85
2022/01/21 04:51:19;;;;;;;3.33;2.67;;;;;;;;;;5019328;28;20206;-86
2022/01/21 04:53:49;;;;;;;10.32;3.53;;;;;;;;;;5020175;28;20725;-84
2022/01/21 04:56:17;;;;;;;3.97;2.13;;;;;;;;;;5020620;28;20276;-87
2022/01/21 04:58:46;;;;;;;8.82;3.72;;;;;;;;;;5018076;28;20210;-83
2022/01/21 05:01:14;;;;;;;2.13;1.90;;;;;;;;;;5017868;28;20558;-86
2022/01/21 05:03:44;;;;;;;5.43;2.17;;;;;;;;;;5019756;28;20195;-85
2022/01/21 05:06:12;;;;;;;3.30;1.85;;;;;;;;;;5020361;28;20207;-88
2022/01/21 05:08:45;;;;;;;4.05;2.30;;;;;;;;;;5019502;28;20683;-86
2022/01/21 05:11:16;;;;;;;4.22;2.17;;;;;;;;;;5018661;28;20187;-87
2022/01/21 05:13:51;;;;;;;7.25;1.80;;;;;;;;;;5019886;28;20203;-86
2022/01/21 05:16:30;;;;;;;2.63;2.35;;;;;;;;;;5019888;28;20222;-86
2022/01/21 05:18:59;;;;;;;6.85;2.65;;;;;;;;;;5019297;28;20225;-87
2022/01/21 05:21:26;;;;;;;4.68;1.90;;;;;;;;;;5018711;28;20237;-88
2022/01/21 05:23:54;;;;;;;4.57;2.00;;;;;;;;;;5017274;28;20195;-88
2022/01/21 05:26:23;;;;;;;6.20;2.17;;;;;;;;;;5017331;28;20211;-87
2022/01/21 05:28:50;;;;;;;6.93;2.03;;;;;;;;;;5019383;28;20569;-87
2022/01/21 05:31:18;;;;;;;5.18;3.42;;;;;;;;;;5018622;28;20487;-86
2022/01/21 05:33:45;;;;;;;6.32;2.30;;;;;;;;;;5019458;28;20210;-86
2022/01/21 05:36:12;;;;;;;2.95;2.30;;;;;;;;;;5019156;28;20207;-88
2022/01/21 05:38:39;;;;;;;2.90;1.95;;;;;;;;;;5019925;28;20195;-87
2022/01/21 05:41:07;;;;;;;7.32;2.97;;;;;;;;;;5018974;28;20690;-86
2022/01/21 05:43:37;;;;;;;3.20;2.20;;;;;;;;;;5019330;28;20199;-89
2022/01/21 05:46:23;;;;;;;7.45;2.60;;;;;;;;;;5019093;28;20206;-87
2022/01/21 05:48:50;;;;;;;9.05;2.47;;;;;;;;;;5016865;28;20198;-88
2022/01/21 05:51:29;;;;;;;8.18;2.65;;;;;;;;;;5016493;28;20179;-87
2022/01/21 05:53:56;;;;;;;5.38;1.83;;;;;;;;;;5016779;28;20628;-88
2022/01/21 05:56:25;;;;;;;3.80;1.95;;;;;;;;;;5017055;28;20210;-87
2022/01/21 05:58:54;;;;;;;5.32;2.10;;;;;;;;;;5016824;28;20218;-87
2022/01/21 06:01:21;;;;;;;9.18;3.58;;;;;;;;;;5016471;28;20674;-87
2022/01/21 06:03:49;;;;;;;4.15;2.13;;;;;;;;;;5016457;28;20211;-88
2022/01/21 06:06:17;;;;;;;5.28;2.80;;;;;;;;;;5017466;28;20647;-88
2022/01/21 06:08:44;;;;;;;2.80;1.80;;;;;;;;;;5016595;28;20198;-86
2022/01/21 06:11:12;;;;;;;5.53;2.65;;;;;;;;;;5016589;28;20199;-87
2022/01/21 06:13:39;;;;;;;5.88;3.13;;;;;;;;;;5017560;28;20199;-86
2022/01/21 06:16:08;;;;;;;9.05;2.70;;;;;;;;;;5017295;28;20230;-88
2022/01/21 06:18:35;;;;;;;4.65;2.22;;;;;;;;;;5016349;28;20223;-88
2022/01/21 06:21:16;;;;;;;4.90;2.35;;;;;;;;;;5017205;28;20215;-86
2022/01/21 06:23:44;;;;;;;2.92;2.28;;;;;;;;;;5016875;28;20187;-87
2022/01/21 06:26:12;;;;;;;8.60;2.95;;;;;;;;;;5016946;28;20187;-88
2022/01/21 06:28:40;;;;;;;5.50;2.55;;;;;;;;;;5017259;28;20206;-87
2022/01/21 06:31:09;;;;;;;3.63;2.40;;;;;;;;;;5016275;28;20222;-87
2022/01/21 06:33:36;;;;;;;4.45;2.50;;;;;;;;;;5016841;28;20203;-86
2022/01/21 06:36:04;;;;;;;5.47;2.42;;;;;;;;;;5018371;28;20210;-85
2022/01/21 06:38:31;;;;;;;5.68;2.50;;;;;;;;;;5017871;28;20229;-86
2022/01/21 06:40:59;;;;;;;7.00;3.20;;;;;;;;;;5016166;28;20227;-85
2022/01/21 06:43:27;;;;;;;5.82;2.55;;;;;;;;;;5016491;28;20203;-86
2022/01/21 06:45:54;;;;;;;5.47;3.38;;;;;;;;;;5016225;28;20199;-86
2022/01/21 06:48:22;;;;;;;10.45;3.40;;;;;;;;;;5016641;28;20195;-85
2022/01/21 06:50:50;;;;;;;10.70;3.22;;;;;;;;;;5016126;28;20245;-87
2022/01/21 06:53:17;;;;;;;4.53;2.38;;;;;;;;;;5016209;28;20210;-87
2022/01/21 06:55:44;;;;;;;5.05;2.13;;;;;;;;;;5016694;28;20191;-86
2022/01/21 06:58:12;;;;;;;5.68;3.30;;;;;;;;;;5017570;28;20218;-87
2022/01/21 07:00:39;;;;;;;6.40;2.70;;;;;;;;;;5019785;28;20225;-87
2022/01/21 07:03:06;;;;;;;9.13;2.42;;;;;;;;;;5020288;28;20210;-86
2022/01/21 07:05:35;;;;;;;2.47;2.00;;;;;;;;;;5020835;28;20831;-86
2022/01/21 07:08:03;;;;;;;6.78;3.47;;;;;;;;;;5018617;28;20199;-87
2022/01/21 07:10:30;;;;;;;4.57;2.47;;;;;;;;;;5018633;28;20226;-87
2022/01/21 07:12:58;;;;;;;6.05;2.20;;;;;;;;;;5020569;28;20207;-86
2022/01/21 07:15:26;;;;;;;4.53;2.30;;;;;;;;;;5019395;28;20218;-86
2022/01/21 07:17:54;;;;;;;5.35;2.58;;;;;;;;;;5017926;28;20226;-86
2022/01/21 07:20:21;;;;;;;7.20;2.88;;;;;;;;;;5020503;28;20219;-87
2022/01/21 07:22:50;;;;;;;3.00;2.17;;;;;;;;;;5019821;28;20199;-86
2022/01/21 07:25:18;;;;;;;8.00;3.33;;;;;;;;;;5018335;28;20199;-87
2022/01/21 07:27:46;;;;;;;13.25;4.00;;;;;;;;;;5017625;28;20206;-87
2022/01/21 07:30:15;;;;;;;5.03;2.42;;;;;;;;;;5018031;28;20314;-86
2022/01/21 07:32:44;;;;;;;4.10;2.50;;;;;;;;;;5017863;28;20203;-88
2022/01/21 07:35:14;;;;;;;5.32;2.20;;;;;;;;;;5018775;28;20206;-88
2022/01/21 07:37:42;;;;;;;4.22;2.70;;;;;;;;;;5018587;28;20203;-87
2022/01/21 07:40:13;;;;;;;5.60;2.40;;;;;;;;;;5018508;28;20583;-87
2022/01/21 07:42:41;;;;;;;5.78;2.78;;;;;;;;;;5018486;28;20802;-86
2022/01/21 07:45:10;;;;;;;9.13;2.75;;;;;;;;;;5018022;28;20182;-86
2022/01/21 07:47:37;;;;;;;7.55;2.67;;;;;;;;;;5017202;28;20263;-86
2022/01/21 07:50:06;;;;;;;5.75;2.80;;;;;;;;;;5017573;28;20234;-86
2022/01/21 07:52:33;;;;;;;4.25;3.13;;;;;;;;;;5016178;28;20702;-86
2022/01/21 07:55:01;;;;;;;5.40;2.25;;;;;;;;;;5017680;28;20203;-86
2022/01/21 07:57:30;;;;;;;6.15;2.65;;;;;;;;;;5016710;28;20668;-84
2022/01/21 07:59:57;;;;;;;2.80;2.47;;;;;;;;;;5018519;28;20235;-85
2022/01/21 08:02:26;;;;;;;2.30;2.10;;;;;;;;;;5022418;28;20207;-86
2022/01/21 08:04:56;;;;;;;4.82;2.80;;;;;;;;;;5021223;28;20207;-86
2022/01/21 08:07:24;;;;;;;3.55;2.25;;;;;;;;;;5021938;28;20210;-85
2022/01/21 08:09:53;;;;;;;5.78;2.35;;;;;;;;;;5020509;28;20226;-87
2022/01/21 08:12:21;;;;;;;5.97;2.67;;;;;;;;;;5021432;28;20227;-87
2022/01/21 08:14:49;;;;;;;5.35;2.50;;;;;;;;;;5022715;28;20207;-87
2022/01/21 08:17:17;;;;;;;5.95;2.83;;;;;;;;;;5023575;28;20290;-86
2022/01/21 08:19:44;;;;;;;7.72;2.40;;;;;;;;;;5023179;28;20231;-86
2022/01/21 08:22:12;;;;;;;7.35;2.38;;;;;;;;;;5021638;28;20205;-86
2022/01/21 08:24:39;;;;;;;4.68;2.40;;;;;;;;;;5021049;28;20668;-87
2022/01/21 08:27:07;;;;;;;3.13;2.25;;;;;;;;;;5022367;28;20542;-87
2022/01/21 08:29:35;;;;;;;6.95;2.70;;;;;;;;;;5021369;28;20223;-87
2022/01/21 08:32:05;;;;;;;7.53;2.80;;;;;;;;;;5021116;28;20207;-86
2022/01/21 08:34:34;;;;;;;3.70;3.00;;;;;;;;;;5020938;28;20194;-86
2022/01/21 08:37:02;;;;;;;4.15;2.30;;;;;;;;;;5021234;28;20203;-86
2022/01/21 08:39:30;;;;;;;4.93;2.80;;;;;;;;;;5021321;28;20260;-88
2022/01/21 08:41:57;;;;;;;3.55;2.05;;;;;;;;;;5021026;28;20203;-87
2022/01/21 08:44:25;;;;;;;3.85;2.80;;;;;;;;;;5020698;28;20206;-87
2022/01/21 08:46:52;;;;;;;3.33;1.83;;;;;;;;;;5021095;28;20586;-87
2022/01/21 08:49:21;;;;;;;2.75;1.70;;;;;;;;;;5020786;28;20245;-86
2022/01/21 08:51:51;;;;;;;5.03;2.42;;;;;;;;;;5020686;28;20485;-86
2022/01/21 08:54:19;;;;;;;7.95;2.85;;;;;;;;;;5021514;28;20209;-86
2022/01/21 08:56:49;;;;;;;6.30;2.50;;;;;;;;;;5020947;28;20191;-86
2022/01/21 08:59:17;;;;;;;4.25;2.28;;;;;;;;;;5020122;28;20596;-86
2022/01/21 09:01:45;;;;;;;5.25;2.20;;;;;;;;;;5020863;28;20199;-86
2022/01/21 09:04:13;;;;;;;5.10;2.08;;;;;;;;;;5020586;28;20660;-87
2022/01/21 09:06:42;;;;;;;2.75;1.98;;;;;;;;;;5021545;28;20573;-87
2022/01/21 09:09:10;;;;;;;3.65;2.45;;;;;;;;;;5019943;28;20225;-87
2022/01/21 09:11:37;;;;;;;4.53;2.30;;;;;;;;;;5022058;28;20585;-87
2022/01/21 09:14:04;;;;;;;3.67;1.85;;;;;;;;;;5022264;28;20206;-88
2022/01/21 09:16:32;;;;;;;5.25;1.92;;;;;;;;;;5023282;28;20261;-88
2022/01/21 09:19:02;;;;;;;2.80;2.00;;;;;;;;;;5023588;28;20225;-87
2022/01/21 09:21:32;;;;;;;3.28;2.53;;;;;;;;;;5022462;28;20199;-87
2022/01/21 09:24:02;;;;;;;4.82;1.83;;;;;;;;;;5022349;28;20193;-87
2022/01/21 09:26:30;;;;;;;1.42;1.33;;;;;;;;;;5021433;28;20547;-86
2022/01/21 09:28:58;;;;;;;2.67;2.47;;;;;;;;;;5021691;28;20652;-87
2022/01/21 09:31:25;;;;;;;5.45;1.63;;;;;;;;;;5021126;28;20195;-87
2022/01/21 09:33:53;;;;;;;2.60;1.42;;;;;;;;;;5019884;28;20199;-87
2022/01/21 09:36:21;;;;;;;2.45;1.67;;;;;;;;;;5020733;28;20676;-87
2022/01/21 09:38:49;;;;;;;2.00;1.65;;;;;;;;;;5020919;28;20233;-88
2022/01/21 09:41:18;;;;;;;6.88;2.67;;;;;;;;;;5019402;28;20227;-88
2022/01/21 09:43:52;;;;;;;2.63;1.50;;;;;;;;;;5019454;28;20202;-86
2022/01/21 09:46:25;;;;;;;4.22;1.50;;;;;;;;;;5018851;28;20298;-87
2022/01/21 09:49:05;;;;;;;4.57;1.85;;;;;;;;;;5018559;28;20632;-86
2022/01/21 09:51:33;;;;;;;2.65;1.65;;;;;;;;;;5017611;28;20250;-89
2022/01/21 09:54:02;;;;;;;3.88;1.95;;;;;;;;;;5017727;28;20237;-90
2022/01/21 09:56:32;;;;;;;1.40;1.30;;;;;;;;;;5018719;28;20227;-89
2022/01/21 09:59:00;;;;;;;2.38;2.13;;;;;;;;;;5018887;28;20203;-90
2022/01/21 10:01:29;;;;;;;2.03;1.35;;;;;;;;;;5018929;28;20195;-87
2022/01/21 10:03:56;;;;;;;4.90;1.30;;;;;;;;;;5017947;28;20210;-89
2022/01/21 10:06:26;;;;;;;1.63;1.52;;;;;;;;;;5016990;28;20217;-89
2022/01/21 10:08:56;;;;;;;2.65;2.03;;;;;;;;;;5016348;28;20207;-87
2022/01/21 10:11:24;;;;;;;1.60;1.50;;;;;;;;;;5016856;28;20282;-88
2022/01/21 10:13:55;;;;;;;7.80;1.70;;;;;;;;;;5016350;28;20210;-88
2022/01/21 10:16:22;;;;;;;2.03;1.48;;;;;;;;;;5016538;28;20200;-88
2022/01/21 10:19:05;;;;;;;3.15;1.58;;;;;;;;;;5016059;28;20195;-88
2022/01/21 10:21:35;;;;;;;3.38;1.50;;;;;;;;;;5016567;28;20206;-89
2022/01/21 10:24:08;;;;;;;2.50;1.40;;;;;;;;;;5016338;28;20439;-88
2022/01/21 10:26:36;;;;;;;2.35;1.50;;;;;;;;;;5016484;28;20691;-88
2022/01/21 10:29:05;;;;;;;3.60;1.35;;;;;;;;;;5016259;28;20648;-87
2022/01/21 10:31:32;;;;;;;1.33;1.23;;;;;;;;;;5016708;28;20200;-88
2022/01/21 10:34:06;;;;;;;2.13;1.30;;;;;;;;;;5015882;28;20222;-88
2022/01/21 10:36:35;;;;;;;3.63;1.50;;;;;;;;;;5016643;28;20207;-88
2022/01/21 10:39:10;;;;;;;1.75;1.38;;;;;;;;;;5016671;28;20199;-87
2022/01/21 10:41:44;;;;;;;2.55;1.40;;;;;;;;;;5016524;28;20202;-88
2022/01/21 10:44:15;;;;;;;4.30;2.03;;;;;;;;;;5016302;28;20191;-88
2022/01/21 10:46:47;;;;;;;3.55;1.75;;;;;;;;;;5016005;28;20199;-88
2022/01/21 10:49:17;;;;;;;3.22;2.38;;;;;;;;;;5015893;28;20724;-88
2022/01/21 10:51:52;;;;;;;2.33;2.13;;;;;;;;;;5016945;28;20203;-88
2022/01/21 10:54:22;;;;;;;2.47;2.28;;;;;;;;;;5015828;28;20198;-88
2022/01/21 10:57:12;;;;;;;3.75;1.98;;;;;;;;;;5016671;28;20202;-88
2022/01/21 10:59:57;;;;;;;2.25;1.70;;;;;;;;;;5015691;28;20222;-88
2022/01/21 11:02:39;;;;;;;4.18;2.10;;;;;;;;;;5015611;28;20214;-87
2022/01/21 11:05:12;;;;;;;2.28;1.73;;;;;;;;;;5016728;28;20205;-87
2022/01/21 11:07:59;;;;;;;4.10;1.88;;;;;;;;;;5016220;28;20598;-89
2022/01/21 11:10:49;;;;;;;2.55;1.67;;;;;;;;;;5015996;28;20566;-87
2022/01/21 11:13:32;;;;;;;3.88;2.70;;;;;;;;;;5016023;28;20184;-89
2022/01/21 11:16:12;;;;;;;1.83;1.73;;;;;;;;;;5015913;28;20184;-87
2022/01/21 11:18:55;;;;;;;3.85;1.80;;;;;;;;;;5016226;28;20694;-87
2022/01/21 11:21:24;;;;;;;5.22;2.20;;;;;;;;;;5016106;28;20227;-85
2022/01/21 11:23:52;;;;;;;4.38;1.90;;;;;;;;;;5015571;28;20210;-86
2022/01/21 11:26:20;;;;;;;7.68;3.55;;;;;;;;;;5014778;28;20199;-87
2022/01/21 11:28:50;;;;;;;3.10;1.70;;;;;;;;;;5016045;28;20229;-87
2022/01/21 11:31:21;;;;;;;3.67;2.90;;;;;;;;;;5015742;28;20617;-87
2022/01/21 11:33:49;;;;;;;3.78;1.90;;;;;;;;;;5015104;28;20234;-88
2022/01/21 11:36:18;;;;;;;2.55;2.35;;;;;;;;;;5017471;28;20214;-88
2022/01/21 11:38:48;;;;;;;4.80;2.45;;;;;;;;;;5017405;28;20215;-87
2022/01/21 11:41:17;;;;;;;2.03;1.50;;;;;;;;;;5017203;28;20219;-87
2022/01/21 11:43:51;;;;;;;2.90;1.92;;;;;;;;;;5017182;28;20201;-88
2022/01/21 11:46:38;;;;;;;2.03;1.60;;;;;;;;;;5017652;28;20628;-87
2022/01/21 11:49:10;;;;;;;3.30;2.20;;;;;;;;;;5017173;28;20231;-88
2022/01/21 11:51:39;;;;;;;4.00;1.95;;;;;;;;;;5017075;28;20205;-88
2022/01/21 11:54:09;;;;;;;4.30;2.50;;;;;;;;;;5016804;28;20203;-89
2022/01/21 11:56:44;;;;;;;5.50;1.80;;;;;;;;;;5017549;28;20644;-88
2022/01/21 11:59:23;;;;;;;2.90;1.80;;;;;;;;;;5016805;28;20222;-88
2022/01/21 12:01:52;;;;;;;2.65;1.85;;;;;;;;;;5016454;28;20214;-88
2022/01/21 12:04:45;;;;;;;2.03;1.75;;;;;;;;;;5016953;28;20206;-88
2022/01/21 12:07:48;;;;;;;4.63;2.60;;;;;;;;;;5016920;28;20633;-87
2022/01/21 12:10:20;;;;;;;2.45;1.60;;;;;;;;;;5016779;28;20218;-87
2022/01/21 12:13:11;;;;;;;2.22;1.50;;;;;;;;;;5016632;28;20253;-87
2022/01/21 12:19:16;;;;;;;2.63;1.90;;;;;;;;;;5016501;28;20179;-87
2022/01/21 12:21:43;;;;;;;1.33;1.17;;;;;;;;;;5016391;28;20219;-87
2022/01/21 12:24:12;;;;;;;2.92;1.77;;;;;;;;;;5016745;28;20199;-87
2022/01/21 12:26:57;;;;;;;3.47;1.50;;;;;;;;;;5016190;28;20566;-88
2022/01/21 12:29:27;;;;;;;2.33;1.70;;;;;;;;;;5016141;28;20645;-88
2022/01/21 12:32:04;;;;;;;2.25;1.90;;;;;;;;;;5015878;28;20210;-87
2022/01/21 12:35:20;;;;;;;1.23;1.13;;;;;;;;;;5016331;28;20624;-87
2022/01/21 12:41:20;;;;;;;4.25;1.70;;;;;;;;;;5015784;28;20329;-89
2022/01/21 12:43:49;;;;;;;5.95;2.42;;;;;;;;;;5014740;28;20213;-87
2022/01/21 12:46:18;;;;;;;3.55;1.70;;;;;;;;;;5015118;28;20270;-87
2022/01/21 12:48:48;;;;;;;6.38;1.88;;;;;;;;;;5015710;28;20285;-87
2022/01/21 12:51:31;;;;;;;4.22;1.77;;;;;;;;;;5016054;28;20199;-87
2022/01/21 12:56:50;;;;;;;2.13;1.45;;;;;;;;;;5015755;28;20746;-87
2022/01/21 12:59:20;;;;;;;5.88;2.00;;;;;;;;;;5015423;28;20273;-86
2022/01/21 13:01:49;;;;;;;3.17;1.75;;;;;;;;;;5015095;28;20680;-87
2022/01/21 13:04:43;;;;;;;8.15;2.53;;;;;;;;;;5014907;28;20203;-88
2022/01/21 13:07:14;;;;;;;5.55;2.50;;;;;;;;;;5015651;28;20210;-87
2022/01/21 13:10:07;;;;;;;6.60;2.65;;;;;;;;;;5015317;28;20222;-87
2022/01/21 13:13:01;;;;;;;3.15;1.60;;;;;;;;;;5015586;28;20209;-88
2022/01/21 13:15:40;;;;;;;3.97;1.60;;;;;;;;;;5015409;28;20209;-88
2022/01/21 13:18:09;;;;;;;5.18;2.45;;;;;;;;;;5015509;28;20711;-85
2022/01/21 13:20:40;;;;;;;4.50;2.00;;;;;;;;;;5015269;28;20706;-87
2022/01/21 13:23:09;;;;;;;6.22;2.08;;;;;;;;;;5015182;28;20179;-86
2022/01/21 13:25:36;;;;;;;4.55;1.83;;;;;;;;;;5014931;28;20758;-87
2022/01/21 13:28:06;;;;;;;6.90;3.38;;;;;;;;;;5014771;28;20199;-87
2022/01/21 13:30:36;;;;;;;5.70;1.92;;;;;;;;;;5015018;28;20230;-87
2022/01/21 13:33:07;;;;;;;6.53;2.08;;;;;;;;;;5014711;28;20222;-87
2022/01/21 13:35:36;;;;;;;2.92;1.70;;;;;;;;;;5015507;28;20207;-86
2022/01/21 13:38:11;;;;;;;5.70;1.98;;;;;;;;;;5015054;28;20198;-87
2022/01/21 13:40:42;;;;;;;3.40;1.70;;;;;;;;;;5020394;28;20241;-87
2022/01/21 13:43:14;;;;;;;5.28;2.10;;;;;;;;;;5014384;28;20219;-87
2022/01/21 13:45:54;;;;;;;5.47;2.53;;;;;;;;;;5014854;28;20183;-87
2022/01/21 13:48:23;;;;;;;2.28;1.30;;;;;;;;;;5014777;28;20226;-87
2022/01/21 13:50:51;;;;;;;5.35;2.67;;;;;;;;;;5014386;28;20227;-88
2022/01/21 13:53:22;;;;;;;4.80;2.10;;;;;;;;;;5014299;28;20583;-87
2022/01/21 13:55:52;;;;;;;3.78;2.00;;;;;;;;;;5014780;28;20645;-88
2022/01/21 13:58:21;;;;;;;3.17;1.63;;;;;;;;;;5013200;28;20203;-89
2022/01/21 14:00:51;;;;;;;5.47;1.80;;;;;;;;;;5015849;28;20223;-88
2022/01/21 14:03:22;;;;;;;7.57;2.03;;;;;;;;;;5018578;28;20336;-86
2022/01/21 14:06:00;;;;;;;4.63;1.63;;;;;;;;;;5016697;28;20199;-88
2022/01/21 14:08:32;;;;;;;6.40;1.90;;;;;;;;;;5016659;28;20194;-86
2022/01/21 14:11:05;;;;;;;3.33;1.58;;;;;;;;;;5016643;28;20572;-88
2022/01/21 14:13:34;;;;;;;1.95;1.73;;;;;;;;;;5014974;28;20209;-87
2022/01/21 14:16:05;;;;;;;4.82;2.38;;;;;;;;;;5014478;28;20198;-87
2022/01/21 14:18:34;;;;;;;3.33;2.25;;;;;;;;;;5014012;28;20203;-87
2022/01/21 14:21:07;;;;;;;8.25;2.75;;;;;;;;;;5014409;28;20225;-87
2022/01/21 14:23:37;;;;;;;3.05;1.80;;;;;;;;;;5013981;28;20219;-88
2022/01/21 14:26:05;;;;;;;2.95;2.03;;;;;;;;;;5014281;28;20257;-87
2022/01/21 14:28:41;;;;;;;3.53;1.67;;;;;;;;;;5014143;28;20203;-88
2022/01/21 14:31:27;;;;;;;7.57;2.35;;;;;;;;;;5014085;28;20215;-88
2022/01/21 14:33:54;;;;;;;4.00;1.95;;;;;;;;;;5013695;28;20586;-88
2022/01/21 14:36:22;;;;;;;3.13;2.30;;;;;;;;;;5014239;28;20534;-88
2022/01/21 14:38:53;;;;;;;2.75;1.75;;;;;;;;;;5014270;28;20191;-88
2022/01/21 14:41:24;;;;;;;6.22;2.30;;;;;;;;;;5016780;28;20218;-90
2022/01/21 14:43:57;;;;;;;6.93;2.20;;;;;;;;;;5018434;28;20250;-91
2022/01/21 14:46:26;;;;;;;4.78;2.10;;;;;;;;;;5018099;28;20250;-89
2022/01/21 14:49:03;;;;;;;4.13;2.00;;;;;;;;;;5013519;28;20203;-89
2022/01/21 14:54:21;;;;;;;4.05;2.70;;;;;;;;;;5013134;28;20727;-87
2022/01/21 14:56:59;;;;;;;3.55;2.50;;;;;;;;;;5014248;28;20201;-88
2022/01/21 14:59:27;;;;;;;4.18;2.25;;;;;;;;;;5014540;28;20226;-89
2022/01/21 15:02:03;;;;;;;4.43;2.50;;;;;;;;;;5014444;28;20195;-87
2022/01/21 15:04:35;;;;;;;5.75;2.50;;;;;;;;;;5015839;28;20230;-87
2022/01/21 15:07:12;;;;;;;2.70;2.05;;;;;;;;;;5014644;28;20195;-88
2022/01/21 15:09:48;;;;;;;3.67;2.42;;;;;;;;;;5014975;28;20233;-88
2022/01/21 15:15:27;;;;;;;3.30;1.98;;;;;;;;;;5014963;28;20207;-87
2022/01/21 15:17:55;;;;;;;5.45;2.28;;;;;;;;;;5015155;28;20293;-87
2022/01/21 15:20:23;;;;;;;5.93;2.42;;;;;;;;;;5015277;28;20566;-87
2022/01/21 15:22:50;;;;;;;7.15;2.28;;;;;;;;;;5014718;28;20799;-88
2022/01/21 15:25:19;;;;;;;4.47;3.00;;;;;;;;;;5015559;28;20199;-87
2022/01/21 15:27:47;;;;;;;3.83;2.47;;;;;;;;;;5015428;28;20213;-87
2022/01/21 15:30:15;;;;;;;2.58;1.75;;;;;;;;;;5016377;28;20692;-87
2022/01/21 15:32:43;;;;;;;2.55;1.77;;;;;;;;;;5015832;28;20672;-87
2022/01/21 15:35:11;;;;;;;4.57;2.17;;;;;;;;;;5014970;28;20198;-87
2022/01/21 15:37:39;;;;;;;6.35;2.53;;;;;;;;;;5015643;28;20199;-87
2022/01/21 15:40:10;;;;;;;8.50;2.60;;;;;;;;;;5015410;28;20286;-88
2022/01/21 15:42:41;;;;;;;10.43;3.65;;;;;;;;;;5015893;28;20203;-90
2022/01/21 15:45:10;;;;;;;9.75;2.65;;;;;;;;;;5015454;28;20567;-88
2022/01/21 15:47:39;;;;;;;5.00;2.90;;;;;;;;;;5015584;28;20632;-88
2022/01/21 15:50:09;;;;;;;6.10;2.40;;;;;;;;;;5017312;28;20234;-87
2022/01/21 15:52:49;;;;;;;5.30;3.13;;;;;;;;;;5019904;28;20270;-86
2022/01/21 15:55:18;;;;;;;4.55;3.33;;;;;;;;;;5020403;28;20286;-87